AK Observations

PADK 202238Z AUTO 23023G34KT 7SM OVC011 12/10 A3011 RMK AO2 PK WND 22034/2236 PAKP 202226Z AUTO 17016KT 2 1/2SM -SN BR CLR M25/M27 A3006 RMK AO2 VIS 1 1/2V5 P0000 FZRANO PAKP 202233Z AUTO 17015KT 5SM HZ CLR M25/M28 A3006 RMK AO2 SNE31 P0000 FZRANO PALU 202237Z AUTO 16033G41KT 100V180 1 3/4SM -FZRA BR SCT130 BKN160 M06/M11 A2990 RMK AO2 PK WND 18044/2201 SLP125 PANN 202237Z AUTO 00000KT 5SM HZ FEW002 M23/M26 A3026 RMK AO2 T12331261 TSNO PAOM 202235Z 15015KT 10SM OVC015 M03/M04 A3005 RMK AO2 T10281044 PASN 202243Z AUTO 17014KT 6SM BR SCT010 OVC029 06/04 A3002 RMK AO2 T00560044 TSNO PATQ 202240Z AUTO 10020KT 2SM BR CLR M21/M23 A3011 RMK AO2 FZRANO TSNO PPIZ 202237Z AUTO 14008KT 10SM BKN027 OVC120 M16/M20 A3001 RMK AO2 FZRANO TSNO PAAD 202235Z AUTO 16005KT 10SM SCT027 SCT100 M21/M24 A3030 RMK AO2 T12151237 PAUT 202235Z AUTO 33015G19KT 10SM SCT018 05/01 A3012 RMK AO2 T00460012 PADK 202214Z AUTO 23023G26KT 2 1/2SM BR OVC013 13/11 A3012 RMK AO2 PK WND 24027/2214 PADQ 202211Z 30017G28KT 9SM OVC031 03/M02 A2961 RMK AO2 PK WND 30028/2207 SNE05P0000 T00281017 PAIL 202224Z 33012G19KT 10SM SCT013 M10/M14 A2988 RMK AO2 T11001139 PAKP 202207Z AUTO 19019G23KT 4SM -SN CLR M24/M27 A3007 RMK AO2 P0000 FZRANO PALU 202217Z AUTO 18037G43KT 3/4SM -SN BR BKN130 M06/M09 A2990 RMK AO2 PK WND 18044/2201 SLP125 PANN 202215Z AUTO 00000KT 1 3/4SM HZ SCT002 M24/M27 A3026 RMK AO2 T12391272 TSNO PANN 202223Z AUTO 00000KT 2SM HZ SCT002 M23/M27 A3026 RMK AO2 T12331267 TSNO PASN 202222Z AUTO 18014G20KT 7SM BKN010 BKN035 OVC042 05/04 A3003 RMK AO2 T00500044 TSNO PATE 202219Z AUTO 10008KT 10SM BKN020 M08/M11 A3000 RMK AO2 FZRANO PAAD 202215Z AUTO 19003KT 10SM SCT027 BKN110 M21/M23 A3031 RMK AO2 T12111234 PAUT 202215Z AUTO 32017KT 10SM CLR 05/01 A3012 RMK AO2 T00450011 PAAK 202156Z AUTO 21010KT 10SM OVC049 11/08 A3018 RMK AO2 SLP222 T01060078 PAAQ 202153Z 04032G52KT 10SM SCT200 M02/M18 A2972 RMK AO2 PK WND 04054/2140 SLP068 T10221178 PABA 202152Z AUTO 15004KT 10SM OVC029 M21/M23 A3036 RMK AO2 SNE33 SLP265 P0000 T12061233 FZRANO TSNO PABE 202153Z 02014KT 10SM BKN120 M13/M17 A3014 RMK AO2 SLP210 T11281167 PABI 202153Z 00000KT 10SM CLR M28/M29 A3019 RMK AO2 SLP291 T12781294 PABL 202156Z AUTO 19006KT 10SM CLR M21/M23 A3020 RMK AO2 SLP229 T12061228 FZRANO PABR 202153Z 13014KT 3SM BR SCT002 BKN140 M21/M23 A3019 RMK AO2 SLP226 T12061228 PABT 202153Z 01004KT 10SM CLR M29/M32 A3034 RMK AO2 SLP306 T12891322 PABV 202156Z AUTO 05012G16KT 10SM CLR M03/M13 A2974 RMK AO2 SLP080 T10281133 FZRANO $ PACD 202153Z 35020G27KT 10SM FEW022 03/M02 A3001 RMK AO2 PK WND 35029/2120 SLP164 T00281017 PACM 202156Z AUTO RMK AO2 SLPNO PWINO FZRANO $ PACV 202153Z 32005KT 10SM FEW080 BKN150 01/M09 A2966 RMK AO2 SLP044 T00061094 PACZ 202155Z AUTO 12021G27KT 10SM SCT140 BKN160 M03/M18 A3002 RMK AO2 PK WND 11029/2139 SLP177 T10281183 PADE 202153Z AUTO 14015KT 10SM CLR M13/M19 A3008 RMK AO2 SLP187 T11281189 TSNO $ PADK 202156Z AUTO 21013G21KT 160V230 4SM BR OVC015 11/10 A3013 RMK AO2 PK WND 24034/2104 SLP203 T01110100 PADM 202156Z AUTO 05013G16KT 10SM CLR M12/M18 A3016 RMK AO2 SLP222 T11171178 FZRANO PADQ 202153Z 31017G29KT 4SM -SN OVC027 02/M02 A2960 RMK AO2 PK WND 28030/2125 SLP024 P0001 T00221017 PADU 202156Z VRB03KT 10SM FEW017 SCT150 BKN250 05/01 A3016 RMK AO2 RAB44E54 SLP219 MH P0000 T00500006 PAEC 202154Z 03008KT 30SM SKC M09/M16 A2981 RMK NOSPECI PAED 202156Z AUTO 35009G17KT 10SM CLR M04/M12 A2973 RMK AO2 SLP066 T10361118 $ PAEG 202153Z AUTO 00000KT 10SM CLR M33/M36 A3034 RMK AO2 SLP313 T13281361 TSNO $ PAEH 202155Z AUTO 01010KT 10SM SCT010 M06/M08 A3005 RMK AO2 SLP189 T10621077 PAEI 202156Z 16003KT 10SM CLR M29/M32 A3026 RMK AO2A SLP271 T12891325 $ PAEL 202151Z 10010G22KT 15SM -SN BKN023 OVC050 M01/M05 A2971 RMK SPB E03012G30KT NOSPECI PAEN 202153Z 36011KT 10SM CLR M03/M12 A2979 RMK AO2 SLP089 T10281117 PAFA 202153Z 07004KT 10SM CLR M26/M29 A3028 RMK AO2 SLP270 T12611289 PAFB 202158Z AUTO 00000KT 10SM CLR M27/M29 A3029 RMK AO2 SLP278 T12661293 PAFE 202156Z AUTO 06011G19KT 9SM -SN OVC033 M01/M05 A2974 RMK AO2 SLP082 P0000 T10111050 FZRANO PAFM 202156Z AUTO 03011KT 10SM CLR M19/M23 A3031 RMK AO2 SLP280 T11891228 FZRANO PAFS 202201Z AUTO 10006KT 10SM CLR M20/M23 A3014 RMK AO2 SLP227 T12001228 FZRANO PAGA 202156Z AUTO 01003KT 10SM CLR M23/M26 A3030 RMK AO2 SNB15E28 SLP265 P0000 T12331261 FZRANO PAGK 202153Z AUTO 03006KT 10SM CLR M12/M21 A2992 RMK AO2 SLP184 T11171206 TSNO PAGL 202156Z AUTO 00000KT 10SM CLR M11/M13 A3016 RMK AO2 SLP210 T11111128 FZRANO PAGM 202156Z AUTO 16026KT 10SM BKN018 OVC085 00/M03 A2983 RMK AO2 PK WND 16033/2123 SLP109 T00001028 FZRANO PAGN 202156Z AUTO 03009KT 10SM OVC040 M03/M07 A2978 RMK AO2 SNE2057 SLP074 T10281067 FZRANO PAGS 202156Z AUTO 00000KT 10SM OVC050 M03/M07 A2980 RMK AO2 UPB06E16 SLP090 P0000 T10281067 FZRANO PAGY 202153Z AUTO 03019G26KT 10SM OVC095 M07/M18 A3003 RMK AO2 PK WND 03032/2126 SLP169 T10671178 TSNO PAHL 202156Z AUTO 00000KT 10SM CLR M20/M22 A3029 RMK AO2 SLP269 T12001222 FZRANO PAHN 202154Z AUTO 33010KT 10SM BKN075 OVC090 M08/M12 A3000 RMK AO2 SLP161 T10781117 TSNO PAHO 202153Z 04007KT 10SM CLR M02/M08 A2975 RMK AO2 SLP077 T10171078 PAIG 202156Z AUTO 17006KT 10SM CLR M12/M16 A2991 RMK AO2 SLP140 T11221156 FZRANO $ PAIL 202156Z 35014KT 10SM OVC014 M10/M14 A2986 RMK AO2 T11001139 PAIL 202245Z 35008KT 10SM BKN015 M10/M13 A2987 RMK AO2 T11001133 PAIL 202153Z 36012KT 10SM SCT015 M11/M14 A2986 RMK AO2 SLP118 T11061144 PAIM 202155Z AUTO 18004KT 10SM CLR M22/M24 A3021 RMK AO2 SLP289 T12181244 PAIN 202156Z AUTO 00000KT 10SM CLR M25/M29 A3007 RMK AO2 SLP251 T12501289 FZRANO PAJN 202153Z 18003KT 10SM FEW022 BKN050 OVC060 M04/M08 A2985 RMK AO2 SLP106 T10441083 PAJZ 202156Z AUTO 02022G33KT 6SM HZ CLR M12/M18 A2997 RMK AO2 PK WND 02033/2147 SLP157 T11171178 FZRANO $ PAKH 202156Z AUTO 35010G22KT 10SM SCT045 06/M03 A2959 RMK AO2 SLP020 T00561033 $ PAKI 202156Z AUTO 06014KT 10SM CLR M07/M13 A3011 RMK AO2 SLP200 T10721128 FZRANO PAKK 202156Z AUTO 04004KT 10SM CLR M15/M21 A3015 RMK AO2 SLP223 T11501211 FZRANO PAKN 202154Z 35015G20KT 10SM CLR M11/M16 A2988 RMK AO2 SLP120 T11061156 PAKP 202156Z AUTO 19019KT 2SM -SN BR CLR M24/M27 A3006 RMK AO2 VIS 1V4 SNB08E18B43 SLP278 P0000 T12441267 FZRANO PAKT 202153Z VRB04KT 10SM BKN042 05/M01 A2972 RMK AO2 SLP065 HARBOR WND 10015KT T00501011 PAKU 202159Z 09007KT 10SM R06/P6000FT BKN019 M20/M23 A3030 PAKV 202153Z AUTO 00000KT 10SM CLR M25/M28 A3030 RMK AO2 SLP268 T12501283 TSNO PAKW 202153Z AUTO 06007G18KT 10SM FEW036 SCT085 06/00 A2962 RMK AO2 SLP032 T00560000 TSNO $ PALH 202153Z 35009KT 10SM CLR M04/M12 A2976 RMK AO2 SLP079 T10441117 PALJ 202150Z 00000KT 40SM FEW030 M11/M16 A2984 RMK EST PASS OPN NOSPECI PALP 202146Z 10010KT 10SM OVC018 M18/M22 A3030 PALU 202155Z AUTO 19039G46KT 170V230 1/2SM SN FG BKN130 M05/M08 A2990 RMK AO2 SNB2033 SLP125 P0000 T10541077 PAMB 202156Z AUTO 05008KT 10SM CLR M05/M11 A2996 RMK AO2 SLP152 T10501111 FZRANO $ PAMC 202153Z AUTO 00000KT 10SM CLR M22/M24 A3018 RMK AO2 SLP234 T12171244 TSNO PAMD 202157Z AUTO 05020G28KT 9SM OVC024 02/M01 A2959 RMK AO2 PK WND 06030/2101 SLP009 T00221011 FZRANO PAMH 202156Z 00000KT 10SM CLR M14/M22 A3016 RMK AO2 SLP302 PWINO FZRANO RVRNO PAMK 202156Z AUTO 19009KT 10SM CLR M12/M18 A3017 RMK AO2 SLP219 T11221178 FZRANO $ PAMR 202153Z VRB04KT 10SM CLR M05/M11 A2974 RMK AO2 SLP074 T10501111 PAMY 202156Z AUTO 14014KT 10SM CLR M04/M09 A3010 RMK AO2 SLP194 T10391089 FZRANO PANC 202153Z 35012KT 10SM FEW100 FEW200 M04/M12 A2975 RMK AO2 SLP078 T10391117 $ PANN 202203Z AUTO 00000KT 2 1/2SM HZ FEW002 M24/M27 A3026 RMK AO2 T12441272 TSNO PANN 202153Z AUTO 00000KT 7SM CLR M24/M27 A3026 RMK AO2 SLP266 T12441267 TSNO PANT 202153Z AUTO 12009KT 10SM CLR 06/M02 A2971 RMK AO2 SLP061 T00611022 TSNO $ PANW 202156Z AUTO 01012G19KT 10SM CLR M11/M17 A2993 RMK AO2 SLP153 T11061172 FZRANO PAOH 202156Z AUTO 10014G23KT 10SM BKN040 BKN047 OVC100 M02/M07 A2979 RMK AO2 SLP090 T10221072 FZRANO PAOM 202153Z 14016KT 10SM OVC014 M03/M04 A3006 RMK SLP180 T10281044 VIA AUTODIAL PAOM 202153Z 14016KT 10SM OVC014 M03/M04 A3006 RMK AO2 SLP180 T10281044 PAOR 202153Z 00000KT 10SM FEW190 SCT220 M23/M26 A3014 RMK AO2 SLP283 T12331261 PAOT 202153Z 12019KT 10SM BKN200 M18/M22 A3015 RMK AO2 SLP208 T11831217 PAOU 202156Z AUTO 33021G28KT 5SM HZ CLR 03/M02 A2998 RMK AO2 PK WND 33031/2118 SLP152 T00281017 PAPB 202153Z AUTO 18015KT 8SM BKN048 OVC060 05/04 A3009 RMK AO2 SLP178 T00500039 TSNO PAPG 202156Z 00000KT 10SM FEW029 BKN044 M01/M04 A2975 RMK AO2 SLP077 T10061039 PAPH 202156Z AUTO 01018KT 10SM CLR M04/M08 A2996 RMK AO2 SLP149 T10391083 FZRANO PAPM 202156Z AUTO 32018KT 10SM CLR M10/M13 A3004 RMK AO2 PK WND 32029/2127 SLP176 T11001133 FZRANO PAPN 202156Z AUTO 01012KT 10SM CLR M08/M14 A2993 RMK AO2 SLP137 T10831139 FZRANO PAPO 202156Z AUTO 15033G40KT 8SM BKN012 OVC027 M04/M07 A2995 RMK AO2 PK WND 15040/2155 SLP141 T10441067 FZRANO PAQT 202153Z AUTO 08008KT 10SM SCT019 M22/M23 A3030 RMK SLP261 T12171233 TSNO VIA AUTODIAL PAQT 202150Z AUTO 08007KT 10SM SCT019 M22/M23 A3030 RMK TSNO VIA AUTODIAL PARS 202156Z AUTO 00000KT 10SM CLR M13/M17 A3017 RMK AO2 SLP223 T11331167 FZRANO $ PARY 202156Z AUTO 08010KT 10SM CLR M21/M24 A3022 RMK AO2 SLP265 T12111244 FZRANO PASC 202153Z 12004KT 10SM SCT020 BKN100 M22/M24 A3030 RMK AO2 SLP262 SCT V BKN T12221239 PASD 202156Z 01028G32KT 10SM FEW034 FEW060 SCT110 03/M04 A2989 RMK AO2 PK WND 01036/2135 SLP124 KH T00281039 PASH 202156Z AUTO 13013KT 10SM OVC022 M09/M10 A3000 RMK AO2 SLP161 T10891100 FZRANO PASI 202153Z 10017G24KT 10SM OVC080 04/M04 A2959 RMK AO2 PK WND 11028/2107 SLP018 T00391039 PASK 202156Z AUTO 07017KT 10SM CLR M20/M23 A3025 RMK AO2 SLP241 T12001233 FZRANO $ PASL 202156Z AUTO 35006KT 10SM CLR M11/M19 A3011 RMK AO2 SLP194 T11111189 FZRANO PASM 202156Z AUTO 08011G18KT 10SM CLR M11/M17 A3013 RMK AO2 SLP221 T11111167 FZRANO PASN 202153Z AUTO 18015G22KT 7SM FEW010 OVC042 05/04 A3005 RMK AO2 SLP177 T00500039 TSNO PASO 202153Z AUTO 05003KT 10SM CLR M01/M07 A2974 RMK AO2 SLP072 I1001 T10111072 TSNO PASV 202155Z AUTO 27001KT 10SM CLR M18/M20 A2982 RMK AO2 SLP156 T11781205 PASX 202156Z AUTO 06004KT 6SM BR CLR M09/M11 RMK AO2 SLPNO T10891106 FZRANO $ PASY 202158Z COR 26019KT 7SM CLR 04/03 A3009 RMK AO2 PRESRR SLP193 T00400027 $ COR 2247 PATA 202152Z 07010G15KT 10SM CLR M19/M23 A3031 RMK AO2 SLP272 T11941233 PNO PATC 202155Z AUTO 19027KT 10SM BKN019 M01/M04 A2992 RMK AO2 PK WND 19031/2155 SLP138 T10131040 $ PATK 202153Z 02012G20KT 10SM CLR M03/M17 A2983 RMK SLP111 T10281172 $ VIA AUTODIAL PATL 202155Z AUTO 09001KT 10SM CLR M18/M21 A3014 RMK AO2 SLP245 T11781209 PATO 202153Z AUTO 27003KT 10SM CLR M06/M09 A2975 RMK AO2 SLP077 T10611089 TSNO PATQ 202249Z AUTO 10019KT 1 1/2SM BR CLR M21/M23 A3011 RMK AO2 FZRANO TSNO PATQ 202156Z AUTO 10016KT 10SM CLR M20/M22 A3014 RMK AO2 SLP214 T12001222 FZRANO TSNO PAUN 202156Z AUTO 08013KT 10SM CLR M15/M19 A3022 RMK AO2 SLP236 T11501194 FZRANO PAVC 202156Z AUTO 29023G37KT 10SM CLR 03/M04 A2997 RMK AO2 PK WND 28037/2155 SLP154 T00281044 PAVD 202156Z 06022G31KT 10SM FEW100 SCT200 SCT300 M01/M16 A2977 RMK AO2 SLP106 2151Z WEA: NONE PK WND 05048/17 TWR WND 06018G37KT T10061156 $ PAVL 202153Z AUTO 13019G30KT 7SM CLR M11/M16 A3007 RMK AO2 PK WND 13030/2151 SLP181 T11061161 TSNO PNO $ PAWD 202153Z AUTO 02025G35KT 10SM FEW120 M02/M09 A2968 RMK AO2 PK WND 36040/2132 SLP049 T10221094 TSNO $ PAWG 202156Z 06009KT 10SM FEW050 SCT070 BKN090 01/M06 A2976 RMK AO2 SLP078 T00061061 PAWI 202153Z AUTO 11018KT 5SM BR CLR M19/M21 A3006 RMK AO2 PK WND 12027/2057 SLP180 T11891211 TSNO PAWS 202156Z AUTO RMK AO2 SNB23SNEMM SLPNO P0000 PWINO FZRANO RVRNO $ PAYA 202153Z AUTO 06012KT 10SM OVC055 03/M07 A2961 RMK AO2 SLP027 T00281067 TSNO PAZK 202156Z AUTO 00000KT 10SM CLR M13/M18 A2978 RMK AO2 SLP177 T11331183 FZRANO PFYU 202156Z 00000KT 10SM CLR M35/ A3041 RMK AO2 SLP330 SKC T1350 PPIZ 202156Z AUTO 15007KT 10SM BKN120 M17/M21 A3003 RMK AO2 SLP173 T11671206 FZRANO TSNO PAFR 202154Z AUTO 16004KT 10SM CLR M08/M11 A2973 RMK AO1 PAGH 202156Z AUTO 11019G25KT 10SM CLR M17/M22 A3031 RMK AO2 SLP273 T11721217 FZRANO PAIK 202156Z AUTO 11007KT 10SM CLR M20/M23 A3025 RMK AO2 SLP251 T12001233 FZRANO PAIW 202156Z AUTO 18023G27KT 9SM OVC023 M01/M04 A2995 RMK AO2 PK WND 18028/2137 SLP144 T10061039 FZRANO PAKF 202201Z AUTO 31015G27KT 270V350 10SM 03/M04 A3003 RMK AO2 PK WND 32034/2107 SLP267 T00331039 PATE 202156Z AUTO 14011KT 10SM FEW018 M06/M08 A3000 RMK AO2 SLP166 T10611083 FZRANO PAVA 202156Z AUTO 13010KT 10SM CLR M07/M11 A3012 RMK AO2 SLP287 T10721111 FZRANO PAWM 202156Z AUTO 09006KT 10SM CLR M12/M15 A3013 RMK AO2 SLP212 T11221150 FZRANO PFEL 202156Z AUTO 00000KT 10SM CLR M11/M14 A3019 RMK AO2 SLP224 T11111139 FZRANO PFKT 202156Z AUTO 09015KT 10SM OVC025 M09/M11 A3002 RMK AO2 SLP167 T10891111 FZRANO PFNO 202156Z AUTO 06012KT 10SM CLR M18/M22 A3022 RMK AO2 SLP234 T11831217 FZRANO PFSH 202156Z AUTO 08005KT 5SM HZ CLR M18/M21 A3020 RMK AO2 SLP227 T11781206 FZRANO PAAD 202155Z AUTO 18005KT 10SM SCT023 SCT090 OVC110 M20/M23 A3031 RMK AO2 T12051231 PAUT 202155Z AUTO 31020G30KT 10SM CLR 05/01 A3010 RMK AO2 T00450012 PFCL 202156Z AUTO 02016KT CLR M05/M13 A2995 RMK AO2 PK WND 36027/2126 SLP134 T10501128 PWINO FZRANO TSNO $